avis per tempestes more information blitzortung!


avis per Pluja more information rain snow radar


Visita la nostra xarxa de llocs de meteo:

Template documentation
and downloads

And another site



Thunderstorms From: 18-09-2018 20:00 Until: 19-09-2018 10:59 warning for: Thunderstorms Level: Yellow info button
Rain From: 18-09-2018 20:00 Until: 19-09-2018 10:59 warning for: Rain Level: Yellow info button

Pagina Historial Weather Underground text

Diari Resum Novembre 12, 2017 Unitats:  Mètric    Imperial   Tant
« Previous Dia
SegĂźent Dia »
Diari Setmana Mensual Anual Personalitzada
  Maxima: Minima: Media:
Temperatura: -17.8 °C -13.5 °C -10.9 °C
Punt de rosada: -17.8 °C -16.2 °C -14.5 °C
Humitat: Humidity % 53 % 65 %
Wind Speed: 0 km/h 0 km/h 8.2 km/h
RĂ fegues de vent: 0 km/h - -
Vent:- - SSE
Pression baro: 0 hPa 34198.6 hPa -
Precipitacions: 0 mm    
Historical Graphs
 
 
Dades de taula per Novembre 12, 2017
Temps Temperatura Punt de rosada Pression baro Vent Wind Speed RĂ fegues de vent Humitat Rainfall Rate (Hourly)
-17.8 °C -17.8 °C 0 hPa Calm     Humidity % 0 mm
00:04 -11.6 °C -14.9 °C 34601.5 hPa NNW 3.1 km/h   66 % 0 mm
00:09 -11.6 °C -14.9 °C 34601.5 hPa NNW 3.1 km/h   66 % 0 mm
00:14 -11.6 °C -15 °C 34601.5 hPa NNE 6 km/h 6 km/h 66 % 0 mm
00:19 -11.7 °C -15.1 °C 34601.5 hPa NE 6 km/h 6 km/h 66 % 0 mm
00:24 -11.7 °C -14.9 °C 34601.5 hPa Calm     67 % 0 mm
00:29 -11.6 °C -14.9 °C 34601.5 hPa NNW 4.2 km/h   67 % 0 mm
00:34 -11.7 °C -15.1 °C 34601.5 hPa NW 4.2 km/h 4.2 km/h 66 % 0 mm
00:39 -11.7 °C -14.9 °C 34601.5 hPa Calm     67 % 0 mm
00:44 -11.7 °C -14.9 °C 34601.5 hPa NNW 4.2 km/h   67 % 0 mm
00:49 -11.8 °C -15.1 °C 34601.5 hPa NNW 3.1 km/h   67 % 0 mm
00:54 -11.8 °C -15.1 °C 34601.5 hPa NNE 3.7 km/h   67 % 0 mm
00:56 -11.8 °C -15.1 °C 34601.5 hPa ENE 6 km/h 6 km/h 67 % 0 mm
01:01 -11.8 °C -15.1 °C 34601.5 hPa NE 6 km/h 6 km/h 67 % 0 mm
01:06 -11.8 °C -15.1 °C 34601.5 hPa NE 6 km/h 6 km/h 67 % 0 mm
01:11 -11.9 °C -15.3 °C 34601.5 hPa NNE 6.3 km/h 6.3 km/h 66 % 0 mm
01:16 -11.9 °C -15.2 °C 34601.5 hPa NNE 6 km/h 6 km/h 67 % 0 mm
01:21 -11.9 °C -15.2 °C 34567.7 hPa NNE 6 km/h 6 km/h 67 % 0 mm
01:26 -11.9 °C -15.2 °C 34567.7 hPa NNW 6 km/h   67 % 0 mm
01:31 -12 °C -15.2 °C 34567.7 hPa NE 3.1 km/h 3.1 km/h 67 % 0 mm
01:36 -12 °C -15.2 °C 34567.7 hPa North 6 km/h 6 km/h 67 % 0 mm
01:41 -12.1 °C -15.4 °C 34567.7 hPa NNE 6 km/h 6 km/h 67 % 0 mm
01:46 -12.1 °C -15.4 °C 34567.7 hPa West 6 km/h 6 km/h 67 % 0 mm
01:51 -12.3 °C -15.5 °C 34533.8 hPa West 9 km/h   67 % 0 mm
01:56 -12.1 °C -15.4 °C 34533.8 hPa NNW 11.9 km/h 11.9 km/h 67 % 0 mm
02:01 -12.2 °C -15.4 °C 34533.8 hPa West 6 km/h 6 km/h 67 % 0 mm
02:06 -12.3 °C -15.5 °C 34533.8 hPa West 6 km/h 6 km/h 67 % 0 mm
02:11 -12.2 °C -15.4 °C 34533.8 hPa West 6 km/h   67 % 0 mm
02:16 -12.2 °C -15.3 °C 34533.8 hPa WNW 3.1 km/h   68 % 0 mm
02:21 -12.1 °C -15.2 °C 34533.8 hPa NNW 3.1 km/h   68 % 0 mm
02:26 -12.2 °C -15.3 °C 34533.8 hPa WNW 4.2 km/h   68 % 0 mm
02:31 -12.2 °C -15.3 °C 34533.8 hPa WNW 4.2 km/h 4.2 km/h 68 % 0 mm
02:36 -12.2 °C -15.4 °C 34533.8 hPa WNW 6.3 km/h 6.3 km/h 68 % 0 mm
02:41 -12.2 °C -15.4 °C 34533.8 hPa NE 3.1 km/h 3.7 km/h 68 % 0 mm
02:47 -12.3 °C -15.4 °C 34533.8 hPa SW 3.7 km/h 3.7 km/h 68 % 0 mm
02:52 -12.3 °C -15.4 °C 34496.6 hPa WSW 4.2 km/h 4.2 km/h 68 % 0 mm
02:57 -12.4 °C -15.4 °C 34496.6 hPa SSW 3.7 km/h 3.7 km/h 69 % 0 mm
03:02 -12.5 °C -15.5 °C 34496.6 hPa Calm     69 % 0 mm
03:07 -12.6 °C -15.6 °C 34533.8 hPa SSW 3.1 km/h   69 % 0 mm
03:12 -12.6 °C -15.6 °C 34533.8 hPa SSW 6 km/h 6 km/h 69 % 0 mm
03:17 -12.6 °C -15.6 °C 34533.8 hPa SW 6 km/h 6 km/h 69 % 0 mm
03:22 -12.7 °C -15.7 °C 34533.8 hPa West 3.1 km/h 3.1 km/h 69 % 0 mm
03:27 -12.6 °C -15.5 °C 34533.8 hPa Calm     70 % 0 mm
03:32 -12.6 °C -15.5 °C 34533.8 hPa NNE 6 km/h 6 km/h 70 % 0 mm
03:37 -12.6 °C -15.4 °C 34533.8 hPa North 4.2 km/h   70 % 0 mm
03:42 -12.5 °C -15.4 °C 34533.8 hPa NE 9 km/h 9 km/h 70 % 0 mm
03:47 -12.4 °C -15.3 °C 34533.8 hPa Calm     70 % 0 mm
03:52 -12.5 °C -15.4 °C 34533.8 hPa Calm     70 % 0 mm
03:57 -12.6 °C -15.4 °C 34533.8 hPa NNE 6 km/h 6 km/h 70 % 0 mm
04:02 -12.6 °C -15.4 °C 34533.8 hPa NW 3.1 km/h   70 % 0 mm
04:07 -12.6 °C -15.4 °C 34533.8 hPa WNW 3.1 km/h   70 % 0 mm
04:13 -12.6 °C -15.4 °C 34533.8 hPa NE 6 km/h 6 km/h 70 % 0 mm
04:18 -12.6 °C -15.4 °C 34533.8 hPa NE 6 km/h 6 km/h 70 % 0 mm
04:23 -12.7 °C -15.6 °C 34533.8 hPa ENE 6 km/h 6 km/h 70 % 0 mm
04:24 -12.7 °C -15.6 °C 34533.8 hPa NNE 6.8 km/h 6.8 km/h 70 % 0 mm
04:25 -12.7 °C -15.6 °C 34533.8 hPa NNE 9 km/h 9 km/h 70 % 0 mm
04:28 -12.7 °C -15.4 °C 34533.8 hPa North 6 km/h 6 km/h 71 % 0 mm
04:30 -12.7 °C -15.6 °C 34533.8 hPa North 9 km/h 9 km/h 70 % 0 mm
04:35 -12.7 °C -15.6 °C 34533.8 hPa North 6 km/h 6 km/h 70 % 0 mm
04:40 -12.7 °C -15.6 °C 34533.8 hPa WSW 6 km/h 6 km/h 70 % 0 mm
04:45 -12.7 °C -15.5 °C 34533.8 hPa Calm     71 % 0 mm
04:50 -12.8 °C -15.6 °C 34567.7 hPa NNE 4.2 km/h   71 % 0 mm
05:00 -12.9 °C -15.7 °C 34567.7 hPa NE 3.1 km/h   71 % 0 mm
05:05 -12.9 °C -15.6 °C 34533.8 hPa NE 3.1 km/h   72 % 0 mm
05:10 -12.9 °C -15.6 °C 34533.8 hPa Calm     72 % 0 mm
05:15 -13 °C -15.7 °C 34533.8 hPa Calm     72 % 0 mm
05:20 -13.1 °C -15.7 °C 34533.8 hPa NW 3.1 km/h   72 % 0 mm
05:25 -13.1 °C -15.7 °C 34533.8 hPa SW 5.6 km/h 5.6 km/h 72 % 0 mm
05:30 -13.2 °C -15.9 °C 34533.8 hPa SSE 3.1 km/h   72 % 0 mm
05:35 -13.3 °C -15.9 °C 34533.8 hPa NNE 9 km/h 9 km/h 72 % 0 mm
05:40 -13.3 °C -15.8 °C 34533.8 hPa ENE 3.1 km/h   73 % 0 mm
05:45 -13.4 °C -15.9 °C 34533.8 hPa Calm     73 % 0 mm
05:50 -13.5 °C -16.2 °C 34496.6 hPa WSW 6 km/h 6 km/h 72 % 0 mm
05:55 -13.4 °C -15.9 °C 34496.6 hPa West 6 km/h 6 km/h 73 % 0 mm
06:00 -13.3 °C -15.8 °C 34496.6 hPa ENE 9 km/h 9 km/h 73 % 0 mm
06:05 -13.1 °C -15.5 °C 34533.8 hPa WNW 9 km/h 9 km/h 74 % 0 mm
06:10 -13 °C -15.5 °C 34533.8 hPa ENE 9 km/h 9 km/h 73 % 0 mm
06:15 -13 °C -15.5 °C 34533.8 hPa NNE 6 km/h 6 km/h 73 % 0 mm
06:20 -12.9 °C -15.5 °C 34533.8 hPa NNE 9 km/h 9 km/h 73 % 0 mm
06:30 -12.9 °C -15.5 °C 34533.8 hPa East 3.1 km/h 3.7 km/h 73 % 0 mm
06:35 -12.9 °C -15.5 °C 34533.8 hPa NNW 9 km/h 9 km/h 73 % 0 mm
06:40 -13 °C -15.5 °C 34533.8 hPa NNW 9 km/h 9 km/h 73 % 0 mm
06:45 -13 °C -15.5 °C 34533.8 hPa NW 9 km/h 9 km/h 73 % 0 mm
06:50 -12.9 °C -15.5 °C 34533.8 hPa ENE 9 km/h 9 km/h 73 % 0 mm
06:55 -12.9 °C -15.5 °C 34533.8 hPa NNW 9 km/h 9 km/h 73 % 0 mm
07:00 -12.9 °C -15.5 °C 34533.8 hPa NNW 6 km/h 6 km/h 73 % 0 mm
07:05 -13 °C -15.5 °C 34533.8 hPa WNW 6 km/h 6 km/h 73 % 0 mm
07:10 -13.1 °C -15.6 °C 34533.8 hPa WNW 6 km/h 6 km/h 73 % 0 mm
07:15 -13.1 °C -15.6 °C 34533.8 hPa NNW 9 km/h 9 km/h 73 % 0 mm
07:20 -13.1 °C -15.7 °C 34533.8 hPa WNW 3.1 km/h 3.1 km/h 73 % 0 mm
07:21 -13.2 °C -15.7 °C 34533.8 hPa West 3.1 km/h 3.1 km/h 73 % 0 mm
07:26 -13.2 °C -15.7 °C 34533.8 hPa NNE 6.3 km/h 6.3 km/h 73 % 0 mm
07:27 -13.2 °C -15.7 °C 34533.8 hPa NW 6 km/h 6 km/h 73 % 0 mm
07:32 -13.2 °C -15.7 °C 34533.8 hPa ENE 6 km/h 6 km/h 74 % 0 mm
07:37 -13.2 °C -15.6 °C 34533.8 hPa NE 6 km/h 6 km/h 74 % 0 mm
07:42 -13.1 °C -15.5 °C 34533.8 hPa East 6 km/h 6 km/h 74 % 0 mm
07:43 -13.1 °C -15.5 °C 34533.8 hPa ENE 6 km/h 6 km/h 74 % 0 mm
07:48 -13 °C -15.4 °C 34533.8 hPa NE 12.2 km/h 12.2 km/h 74 % 0 mm
07:53 -12.9 °C -15.4 °C 34533.8 hPa NNE 12.2 km/h 12.2 km/h 74 % 0 mm
07:58 -12.9 °C -15.3 °C 34533.8 hPa WSW 4.2 km/h   74 % 0 mm
08:03 -12.8 °C -15.3 °C 34533.8 hPa WSW 3.1 km/h   74 % 0 mm
08:08 -12.9 °C -15.3 °C 34533.8 hPa NW 3.1 km/h   74 % 0 mm
08:13 -12.8 °C -15.2 °C 34533.8 hPa NW 3.1 km/h   74 % 0 mm
08:18 -12.6 °C -15.1 °C 34533.8 hPa ENE 6 km/h 6 km/h 74 % 0 mm
08:23 -12.7 °C -15.2 °C 34533.8 hPa SW 6 km/h 6 km/h 73 % 0 mm
08:28 -12.5 °C -15.1 °C 34533.8 hPa NNE 3.7 km/h 3.7 km/h 73 % 0 mm
08:33 -12.3 °C -14.8 °C 34533.8 hPa North 6 km/h 6 km/h 73 % 0 mm
08:38 -12.2 °C -14.7 °C 34533.8 hPa ENE 6 km/h 6 km/h 73 % 0 mm
08:43 -12 °C -14.7 °C 34533.8 hPa WNW 6 km/h 6 km/h 72 % 0 mm
08:48 -11.8 °C -14.6 °C 34533.8 hPa ENE 4.2 km/h 4.2 km/h 72 % 0 mm
08:53 -11.7 °C -14.3 °C 34533.8 hPa West 6 km/h 6 km/h 72 % 0 mm
08:58 -11.7 °C -14.5 °C 34533.8 hPa ENE 8 km/h 8 km/h 71 % 0 mm
09:03 -11.6 °C -14.4 °C 34533.8 hPa NNW 6 km/h 6 km/h 71 % 0 mm
09:08 -11.4 °C -14.2 °C 34533.8 hPa NW 6 km/h 6 km/h 71 % 0 mm
09:13 -11.4 °C -14.4 °C 34533.8 hPa NE 9 km/h 9 km/h 70 % 0 mm
09:18 -11.3 °C -14.4 °C 34533.8 hPa North 9 km/h 9 km/h 69 % 0 mm
09:23 -11.3 °C -14.3 °C 34533.8 hPa ENE 9 km/h 9 km/h 69 % 0 mm
09:28 -11.1 °C -14.1 °C 34533.8 hPa NNE 3.1 km/h   69 % 0 mm
09:34 -11 °C -14.1 °C 34533.8 hPa NNE 6 km/h 6.8 km/h 69 % 0 mm
09:39 -11 °C -14.2 °C 34533.8 hPa NNE 11.9 km/h 11.9 km/h 68 % 0 mm
09:44 -11.1 °C -14.2 °C 34533.8 hPa NNE 14.5 km/h 14.5 km/h 68 % 0 mm
09:49 -11.1 °C -14.3 °C 34533.8 hPa North 14 km/h 14 km/h 68 % 0 mm
09:54 -11.1 °C -14.3 °C 34496.6 hPa ENE 11.9 km/h 11.9 km/h 68 % 0 mm
09:59 -11 °C -14.2 °C 34496.6 hPa ENE 11.9 km/h 11.9 km/h 68 % 0 mm
10:04 -10.9 °C -14.2 °C 34496.6 hPa NNE 16.1 km/h 16.1 km/h 67 % 0 mm
10:09 -10.9 °C -14.2 °C 34533.8 hPa ENE 15.3 km/h 15.3 km/h 67 % 0 mm
10:14 -10.6 °C -13.9 °C 34533.8 hPa NE 6 km/h 6 km/h 67 % 0 mm
10:19 -10.5 °C -13.8 °C 34533.8 hPa ENE 9 km/h 9 km/h 67 % 0 mm
10:24 -10.4 °C -13.7 °C 34533.8 hPa NNE 9 km/h 9 km/h 67 % 0 mm
10:29 -10.2 °C -13.6 °C 34533.8 hPa NW 9 km/h 9 km/h 67 % 0 mm
10:34 -10 °C -13.5 °C 34533.8 hPa WSW 8 km/h 8 km/h 66 % 0 mm
10:39 -9.9 °C -13.5 °C 34533.8 hPa West 11.9 km/h 11.9 km/h 65 % 0 mm
10:44 -9.9 °C -13.5 °C 34533.8 hPa NNE 11.9 km/h 11.9 km/h 65 % 0 mm
10:49 -9.9 °C -13.5 °C 34533.8 hPa West 12.7 km/h 12.7 km/h 65 % 0 mm
10:54 -9.8 °C -13.5 °C 34533.8 hPa West 6 km/h 6 km/h 64 % 0 mm
10:59 -9.6 °C -13.4 °C 34533.8 hPa North 9 km/h 9 km/h 64 % 0 mm
11:04 -9.7 °C -13.4 °C 34533.8 hPa NNW 15 km/h 15 km/h 64 % 0 mm
11:09 -9.6 °C -13.4 °C 34533.8 hPa South 10.3 km/h 10.3 km/h 63 % 0 mm
11:14 -9.5 °C -13.4 °C 34533.8 hPa WSW 9 km/h 9 km/h 63 % 0 mm
11:19 -9.4 °C -13.3 °C 34533.8 hPa WNW 11.1 km/h 11.1 km/h 63 % 0 mm
11:24 -9.4 °C -13.3 °C 34533.8 hPa WNW 9.3 km/h 12.2 km/h 63 % 0 mm
11:29 -9.4 °C -13.4 °C 34533.8 hPa WNW 11.9 km/h 11.9 km/h 62 % 0 mm
11:34 -9.3 °C -13.4 °C 34533.8 hPa NNW 9 km/h 9 km/h 62 % 0 mm
11:39 -9.3 °C -13.4 °C 34533.8 hPa NW 9 km/h 9 km/h 62 % 0 mm
11:44 -9.6 °C -13.7 °C 34533.8 hPa ENE 15 km/h 15.3 km/h 61 % 0 mm
11:49 -9.8 °C -13.9 °C 34533.8 hPa NNE 15 km/h 15 km/h 61 % 0 mm
11:54 -9.8 °C -13.9 °C 34533.8 hPa NE 23.8 km/h 23.8 km/h 61 % 0 mm
11:59 -9.9 °C -14 °C 34533.8 hPa East 15 km/h 15 km/h 61 % 0 mm
12:04 -9.9 °C -14 °C 34533.8 hPa WNW 20.9 km/h 20.9 km/h 61 % 0 mm
12:09 -9.7 °C -13.7 °C 34496.6 hPa ENE 10.3 km/h 10.3 km/h 62 % 0 mm
12:14 -9.7 °C -13.8 °C 34496.6 hPa NNW 9 km/h 9 km/h 61 % 0 mm
12:19 -9.6 °C -13.7 °C 34496.6 hPa ENE 15 km/h 15 km/h 61 % 0 mm
12:24 -9.7 °C -13.8 °C 34496.6 hPa NNE 14.5 km/h 14.5 km/h 61 % 0 mm
12:29 -9.7 °C -13.8 °C 34496.6 hPa NE 9.3 km/h 9.3 km/h 61 % 0 mm
12:34 -9.7 °C -13.8 °C 34496.6 hPa ESE 15.3 km/h 15.3 km/h 61 % 0 mm
12:39 -9.7 °C -13.8 °C 34496.6 hPa NNE 15 km/h 15 km/h 61 % 0 mm
12:44 -9.7 °C -13.8 °C 34496.6 hPa NE 29.8 km/h 29.8 km/h 61 % 0 mm
12:49 -9.8 °C -13.9 °C 34496.6 hPa NNE 17.9 km/h 17.9 km/h 61 % 0 mm
12:54 -9.7 °C -13.8 °C 34462.7 hPa NNE 19.2 km/h 19.2 km/h 61 % 0 mm
12:59 -9.7 °C -13.8 °C 34462.7 hPa ENE 20.9 km/h 20.9 km/h 61 % 0 mm
13:04 -9.6 °C -13.7 °C 34462.7 hPa ENE 17.9 km/h 17.9 km/h 61 % 0 mm
13:09 -9.6 °C -13.7 °C 34462.7 hPa ENE 16.1 km/h 16.1 km/h 61 % 0 mm
13:14 -9.7 °C -13.8 °C 34462.7 hPa NNE 15 km/h 15 km/h 61 % 0 mm
13:19 -9.7 °C -13.8 °C 34462.7 hPa ENE 11.9 km/h 11.9 km/h 61 % 0 mm
13:24 -9.7 °C -13.8 °C 34462.7 hPa NE 12.7 km/h 12.7 km/h 61 % 0 mm
13:29 -9.7 °C -13.8 °C 34462.7 hPa NE 20.9 km/h 20.9 km/h 61 % 0 mm
13:34 -9.8 °C -14.1 °C 34462.7 hPa NNE 22 km/h 22 km/h 60 % 0 mm
13:39 -9.7 °C -13.8 °C 34462.7 hPa NNE 11.9 km/h 11.9 km/h 61 % 0 mm
13:44 -9.6 °C -13.7 °C 34462.7 hPa NNE 14 km/h 14 km/h 61 % 0 mm
13:49 -9.6 °C -13.7 °C 34462.7 hPa NNE 11.9 km/h 11.9 km/h 61 % 0 mm
13:54 -9.6 °C -13.7 °C 34462.7 hPa NNE 20.9 km/h 20.9 km/h 61 % 0 mm
13:59 -9.6 °C -13.7 °C 34462.7 hPa NNE 6 km/h 6.3 km/h 61 % 0 mm
14:04 -9.5 °C -13.7 °C 34395 hPa NNE 15 km/h 15 km/h 61 % 0 mm
14:09 -9.5 °C -13.7 °C 34395 hPa North 15 km/h 15 km/h 61 % 0 mm
14:14 -9.4 °C -13.6 °C 34395 hPa NNE 10.3 km/h 10.3 km/h 61 % 0 mm
14:19 -9.3 °C -13.5 °C 34395 hPa NE 11.9 km/h 11.9 km/h 61 % 0 mm
14:24 -9.4 °C -13.7 °C 34395 hPa ESE 11.9 km/h 11.9 km/h 60 % 0 mm
14:29 -9.3 °C -13.6 °C 34395 hPa NE 9.3 km/h 9.3 km/h 60 % 0 mm
14:30 -9.3 °C -13.5 °C 34395 hPa NE 9 km/h 9 km/h 61 % 0 mm
14:35 -9.3 °C -13.6 °C 34361.1 hPa NNE 17.9 km/h 17.9 km/h 60 % 0 mm
14:40 -9.3 °C -13.6 °C 34361.1 hPa NNE 9 km/h 9 km/h 60 % 0 mm
14:45 -9.2 °C -13.5 °C 34361.1 hPa NNE 17.9 km/h 17.9 km/h 60 % 0 mm
14:50 -9.2 °C -13.4 °C 34361.1 hPa NW 15 km/h 15 km/h 60 % 0 mm
14:55 -9.2 °C -13.4 °C 34361.1 hPa NNE 15 km/h 15 km/h 60 % 0 mm
15:00 -9.1 °C -13.4 °C 34361.1 hPa ENE 9 km/h 9 km/h 60 % 0 mm
15:05 -8.8 °C -13.1 °C 34361.1 hPa SW 6 km/h 6 km/h 60 % 0 mm
15:09 -8.5 °C -12.8 °C 34361.1 hPa SSW 11.9 km/h 11.9 km/h 60 % 0 mm
15:14 -7.9 °C -12.6 °C 34361.1 hPa WNW 11.9 km/h 11.9 km/h 58 % 0 mm
15:19 -7.8 °C -12.7 °C 34395 hPa WNW 15 km/h 15 km/h 56 % 0 mm
15:24 -7.8 °C -12.9 °C 34395 hPa SW 6 km/h 6 km/h 55 % 0 mm
15:29 -7.7 °C -12.8 °C 34395 hPa West 15 km/h 15 km/h 55 % 0 mm
15:34 -7.7 °C -12.9 °C 34395 hPa NE 6 km/h 6 km/h 54 % 0 mm
15:39 -7.6 °C -12.8 °C 34395 hPa WSW 9 km/h 9 km/h 54 % 0 mm
15:49 -7.5 °C -12.8 °C 34395 hPa WSW 3.1 km/h 3.1 km/h 54 % 0 mm
15:54 -7.4 °C -12.7 °C 34395 hPa SW 9 km/h 9 km/h 54 % 0 mm
15:59 -7.5 °C -12.9 °C 34395 hPa East 6 km/h 6 km/h 53 % 0 mm
16:04 -7.8 °C -13.2 °C 34395 hPa NNW 6 km/h 6 km/h 53 % 0 mm
16:09 -8.2 °C -13.4 °C 34395 hPa NNW 9 km/h 9 km/h 54 % 0 mm
16:14 -8.3 °C -13.5 °C 34395 hPa NW 6 km/h 6 km/h 54 % 0 mm
16:19 -8.4 °C -13.5 °C 34361.1 hPa NNE 9 km/h 9 km/h 55 % 0 mm
16:24 -8.6 °C -13.6 °C 34361.1 hPa NNE 10.3 km/h 10.3 km/h 55 % 0 mm
16:29 -8.8 °C -13.7 °C 34361.1 hPa SE 9 km/h 9 km/h 56 % 0 mm
16:34 -8.9 °C -13.8 °C 34361.1 hPa ENE 15 km/h 15 km/h 56 % 0 mm
16:39 -9 °C -13.8 °C 34361.1 hPa NE 6 km/h 6 km/h 56 % 0 mm
16:44 -9.1 °C -14 °C 34361.1 hPa ENE 6.3 km/h 6.3 km/h 56 % 0 mm
16:49 -9.1 °C -13.8 °C 34395 hPa ENE 11.9 km/h 11.9 km/h 57 % 0 mm
16:54 -9.2 °C -13.9 °C 34395 hPa NE 9 km/h 9 km/h 57 % 0 mm
16:59 -9.3 °C -14.1 °C 34395 hPa NE 9 km/h 9 km/h 57 % 0 mm
17:04 -9.4 °C -14.1 °C 34361.1 hPa NNE 6 km/h 6 km/h 57 % 0 mm
17:09 -9.5 °C -14.1 °C 34361.1 hPa NNE 9 km/h 9 km/h 58 % 0 mm
17:14 -9.6 °C -14.1 °C 34361.1 hPa ESE 3.1 km/h   58 % 0 mm
17:19 -9.5 °C -14.1 °C 34361.1 hPa SW 6 km/h 6 km/h 58 % 0 mm
17:24 -9.6 °C -14 °C 34361.1 hPa Calm     59 % 0 mm
17:29 -9.6 °C -14 °C 34361.1 hPa WNW 4.2 km/h 4.2 km/h 59 % 0 mm
17:34 -9.7 °C -14.1 °C 34361.1 hPa SW 6 km/h 6 km/h 59 % 0 mm
17:39 -9.8 °C -14.1 °C 34361.1 hPa West 6 km/h 6 km/h 60 % 0 mm
17:44 -9.8 °C -14.1 °C 34361.1 hPa Calm     60 % 0 mm
17:49 -9.8 °C -14.1 °C 34327.3 hPa WSW 6.3 km/h 6.3 km/h 60 % 0 mm
17:54 -9.9 °C -14.2 °C 34327.3 hPa WNW 6 km/h 6 km/h 60 % 0 mm
17:59 -9.9 °C -14.1 °C 34327.3 hPa NNE 6 km/h 6 km/h 60 % 0 mm
18:04 -10.1 °C -14.2 °C 34361.1 hPa NNE 9 km/h 9 km/h 61 % 0 mm
18:09 -10.2 °C -14.3 °C 34361.1 hPa ENE 7.6 km/h 7.6 km/h 61 % 0 mm
18:14 -10.2 °C -14.2 °C 34361.1 hPa NNE 11.9 km/h 11.9 km/h 62 % 0 mm
18:19 -10.2 °C -14.2 °C 34361.1 hPa ENE 9 km/h 9 km/h 62 % 0 mm
18:24 -10.3 °C -14.3 °C 34361.1 hPa North 6.8 km/h 6.8 km/h 62 % 0 mm
18:29 -10.3 °C -14.3 °C 34361.1 hPa NNE 6 km/h 6 km/h 62 % 0 mm
18:34 -10.4 °C -14.3 °C 34361.1 hPa NNE 3.1 km/h   62 % 0 mm
18:39 -10.4 °C -14.3 °C 34361.1 hPa WNW 6 km/h 6 km/h 62 % 0 mm
18:44 -10.4 °C -14.4 °C 34361.1 hPa Calm     62 % 0 mm
18:49 -10.4 °C -14.4 °C 34361.1 hPa NNE 3.1 km/h 3.1 km/h 62 % 0 mm
18:54 -10.5 °C -14.3 °C 34361.1 hPa NNE 3.1 km/h 3.1 km/h 63 % 0 mm
18:55 -10.5 °C -14.3 °C 34361.1 hPa NNE 3.1 km/h   63 % 0 mm
19:00 -10.6 °C -14.4 °C 34361.1 hPa Calm     63 % 0 mm
19:05 -10.6 °C -14.4 °C 34361.1 hPa Calm     63 % 0 mm
19:10 -10.7 °C -14.5 °C 34361.1 hPa WNW 3.1 km/h   63 % 0 mm
19:15 -10.8 °C -14.5 °C 34361.1 hPa WSW 4.2 km/h 4.2 km/h 64 % 0 mm
19:20 -10.8 °C -14.5 °C 34327.3 hPa Calm     64 % 0 mm
19:25 -10.9 °C -14.6 °C 34327.3 hPa West 3.1 km/h 3.1 km/h 64 % 0 mm
19:30 -10.8 °C -14.5 °C 34327.3 hPa West 6 km/h 6 km/h 64 % 0 mm
19:35 -10.8 °C -14.5 °C 34327.3 hPa WSW 6 km/h 6 km/h 64 % 0 mm
19:40 -10.8 °C -14.5 °C 34327.3 hPa West 3.7 km/h 3.7 km/h 64 % 0 mm
19:45 -10.9 °C -14.6 °C 34327.3 hPa West 3.1 km/h   64 % 0 mm
19:50 -10.9 °C -14.4 °C 34327.3 hPa West 4.2 km/h 4.2 km/h 65 % 0 mm
19:55 -10.9 °C -14.6 °C 34327.3 hPa SW 9 km/h 9 km/h 64 % 0 mm
20:00 -10.9 °C -14.4 °C 34327.3 hPa WSW 5.1 km/h   65 % 0 mm
20:05 -10.9 °C -14.5 °C 34327.3 hPa WNW 6 km/h 6 km/h 65 % 0 mm
20:10 -10.9 °C -14.4 °C 34327.3 hPa West 3.1 km/h   65 % 0 mm
20:15 -10.9 °C -14.5 °C 34327.3 hPa WNW 6.3 km/h 6.3 km/h 65 % 0 mm
20:20 -10.9 °C -14.4 °C 34327.3 hPa WSW 9 km/h 9 km/h 65 % 0 mm
20:21 -10.9 °C -14.4 °C 34327.3 hPa SW 9 km/h 9 km/h 65 % 0 mm
20:26 -10.7 °C -14.3 °C 34327.3 hPa West 6 km/h 6 km/h 64 % 0 mm
20:31 -10.5 °C -14.2 °C 34327.3 hPa WSW 9 km/h 9 km/h 64 % 0 mm
20:36 -10.4 °C -14.1 °C 34327.3 hPa West 9 km/h 9 km/h 64 % 0 mm
20:41 -10.3 °C -14.1 °C 34327.3 hPa WSW 15 km/h 15 km/h 63 % 0 mm
20:46 -10.2 °C -14 °C 34327.3 hPa West 11.9 km/h 11.9 km/h 63 % 0 mm
20:51 -10.2 °C -14 °C 34293.4 hPa WSW 11.9 km/h 11.9 km/h 63 % 0 mm
20:56 -10.2 °C -14.1 °C 34293.4 hPa WSW 11.1 km/h 11.1 km/h 62 % 0 mm
21:06 -10.2 °C -14.1 °C 34293.4 hPa West 9 km/h 9 km/h 62 % 0 mm
21:11 -10.3 °C -14.3 °C 34293.4 hPa West 11.9 km/h 11.9 km/h 62 % 0 mm
21:16 -10.2 °C -14.2 °C 34293.4 hPa WSW 9 km/h 9 km/h 62 % 0 mm
21:21 -10.3 °C -14.3 °C 34293.4 hPa WSW 5.6 km/h   62 % 0 mm
21:26 -10.3 °C -14.3 °C 34293.4 hPa WSW 3.7 km/h 3.7 km/h 62 % 0 mm
21:31 -10.3 °C -14.3 °C 34293.4 hPa SW 3.1 km/h   62 % 0 mm
21:36 -10.4 °C -14.4 °C 34256.2 hPa Calm     62 % 0 mm
21:41 -10.5 °C -14.4 °C 34256.2 hPa NNE 5.1 km/h 5.1 km/h 62 % 0 mm
21:46 -10.5 °C -14.4 °C 34256.2 hPa NW 6 km/h 6 km/h 62 % 0 mm
21:51 -10.6 °C -14.5 °C 34256.2 hPa NNW 9 km/h 9 km/h 62 % 0 mm
21:56 -10.7 °C -14.6 °C 34256.2 hPa West 6 km/h 6 km/h 62 % 0 mm
22:01 -10.8 °C -14.8 °C 34256.2 hPa SW 6 km/h 6 km/h 62 % 0 mm
22:06 -10.8 °C -14.8 °C 34256.2 hPa WSW 6.8 km/h   62 % 0 mm
22:11 -11 °C -14.8 °C 34256.2 hPa WNW 6.8 km/h 6.8 km/h 63 % 0 mm
22:16 -10.9 °C -14.7 °C 34256.2 hPa WSW 9 km/h 9 km/h 63 % 0 mm
22:21 -10.7 °C -14.6 °C 34256.2 hPa WSW 9 km/h 9 km/h 63 % 0 mm
22:23 -10.7 °C -14.6 °C 34256.2 hPa WSW 11.9 km/h 11.9 km/h 63 % 0 mm
22:26 -10.7 °C -14.6 °C 34256.2 hPa NNW 6.3 km/h 6.3 km/h 63 % 0 mm
22:31 -10.7 °C -14.6 °C 34256.2 hPa West 9.3 km/h 9.3 km/h 63 % 0 mm
22:36 -10.7 °C -14.6 °C 34256.2 hPa WSW 11.9 km/h 11.9 km/h 63 % 0 mm
22:41 -10.7 °C -14.6 °C 34256.2 hPa WNW 9 km/h 9 km/h 63 % 0 mm
22:46 -10.7 °C -14.6 °C 34256.2 hPa SSE 6 km/h 6 km/h 63 % 0 mm
22:51 -10.7 °C -14.5 °C 34256.2 hPa SSW 6 km/h 6 km/h 63 % 0 mm
22:56 -10.7 °C -14.6 °C 34256.2 hPa WNW 6 km/h   63 % 0 mm
23:01 -10.7 °C -14.6 °C 34256.2 hPa WSW 6 km/h 6 km/h 63 % 0 mm
23:06 -10.7 °C -14.5 °C 34222.3 hPa NNW 15.3 km/h 15.3 km/h 63 % 0 mm
23:11 -10.7 °C -14.5 °C 34222.3 hPa NW 6.3 km/h 6.3 km/h 63 % 0 mm
23:16 -10.6 °C -14.4 °C 34222.3 hPa South 15 km/h 15 km/h 63 % 0 mm
23:21 -10.6 °C -14.4 °C 34222.3 hPa SW 23.8 km/h 23.8 km/h 63 % 0 mm
23:26 -10.4 °C -14.1 °C 34222.3 hPa West 23.8 km/h 23.8 km/h 64 % 0 mm
23:31 -10.4 °C -14.1 °C 34222.3 hPa WSW 20.9 km/h 20.9 km/h 64 % 0 mm
23:36 -10.3 °C -14.1 °C 34222.3 hPa WSW 20.9 km/h 20.9 km/h 64 % 0 mm
23:41 -10.3 °C -14.1 °C 34222.3 hPa WNW 36.2 km/h 36.2 km/h 64 % 0 mm
23:46 -10.3 °C -14.1 °C 34222.3 hPa SW 23.8 km/h 23.8 km/h 64 % 0 mm
23:51 -10.3 °C -14.1 °C 34198.6 hPa West 23.8 km/h 23.8 km/h 64 % 0 mm
23:56 -10.4 °C -14.1 °C 34198.6 hPa West 11.9 km/h 11.9 km/h 64 % 0 mm
Meteo Sesrovires
Elogis d' Weather Underground - 1.75 mb

Guio original per  Jim McMurry - jmcmurry@mwt.net Adaptat per a la plantilla per  Wim van der Kuil - Leuven-Template.eu

Trobareu la nostra informacio del temps tambe a:

Weather Underground

AWEKAS